Time;durP1;ratioP1;P1;durP2;ratioP2;P2;SDS_P1;SDS_P2;PMS_P1;PMS_P2;Temp;Humidity;BMP_temperature;BMP_pressure;BME280_temperature;BME280_humidity;BME280_pressure;Samples;Min_cycle;Max_cycle;Signal;HPM_P1;HPM_P2
2023/04/07 00:00:02;;;;;;;;;0.00;0.00;;;;;12.95;54.01;101230.34;5036292;28;45323;-67
2023/04/07 00:02:28;;;;;;;;;3.00;2.00;;;;;12.84;53.72;101205.94;5036518;28;45636;-67
2023/04/07 00:04:53;;;;;;;;;4.25;1.25;;;;;12.94;54.93;101225.84;5036174;28;45391;-67
2023/04/07 00:07:18;;;;;;;;;3.00;3.00;;;;;12.88;54.29;101229.28;5019667;28;45461;-67
2023/04/07 00:09:44;;;;;;;;;5.00;2.25;;;;;12.75;54.73;101217.34;5015802;28;45459;-67
2023/04/07 00:12:10;;;;;;;;;6.00;4.00;;;;;12.75;54.79;101232.53;5016194;28;45399;-67
2023/04/07 00:14:35;;;;;;;;;2.25;2.25;;;;;12.66;55.55;101226.06;5016690;28;45552;-66
2023/04/07 00:17:00;;;;;;;;;2.25;2.25;;;;;12.65;55.29;101229.59;5016188;28;46652;-68
2023/04/07 00:19:25;;;;;;;;;3.00;1.25;;;;;12.59;55.38;101217.81;5015943;28;45412;-68
2023/04/07 00:21:52;;;;;;;;;4.50;3.00;;;;;12.44;55.98;101216.56;5014282;28;45519;-66
2023/04/07 00:24:17;;;;;;;;;3.25;1.25;;;;;12.45;56.37;101229.09;5016198;28;45592;-68
2023/04/07 00:26:43;;;;;;;;;2.33;2.00;;;;;12.39;57.17;101231.63;5015941;28;48373;-67
2023/04/07 00:29:08;;;;;;;;;3.75;1.75;;;;;12.35;55.91;101224.34;5020985;28;50235;-67
2023/04/07 00:31:33;;;;;;;;;2.25;2.25;;;;;12.39;56.51;101222.66;5035602;28;45375;-68
2023/04/07 00:33:59;;;;;;;;;5.25;3.00;;;;;12.38;56.95;101221.75;5036082;28;45613;-67
2023/04/07 00:36:26;;;;;;;;;3.75;3.75;;;;;12.41;57.49;101226.31;5033575;28;46512;-66
2023/04/07 00:38:51;;;;;;;;;2.00;2.00;;;;;12.38;57.03;101215.50;5014601;28;45350;-66
2023/04/07 00:41:16;;;;;;;;;1.33;1.00;;;;;12.10;56.50;101158.50;5015664;28;45456;-66
2023/04/07 00:43:42;;;;;;;;;5.25;2.00;;;;;12.46;56.58;101213.94;5016007;28;45285;-67
2023/04/07 00:46:07;;;;;;;;;2.00;2.00;;;;;12.48;56.60;101215.78;5015551;28;45399;-68
2023/04/07 00:48:32;;;;;;;;;3.50;3.25;;;;;12.49;56.91;101206.88;5015861;28;45513;-67
2023/04/07 00:50:58;;;;;;;;;4.00;3.00;;;;;12.40;56.65;101177.16;5018917;28;45352;-68
2023/04/07 00:53:23;;;;;;;;;3.00;1.00;;;;;12.60;56.39;101207.13;5035914;28;45503;-69
2023/04/07 00:55:49;;;;;;;;;6.00;3.00;;;;;12.62;56.49;101208.09;5020197;28;47856;-67
2023/04/07 00:58:14;;;;;;;;;4.25;2.00;;;;;12.63;56.60;101201.84;5015404;28;45410;-65
2023/04/07 01:01:01;;;;;;;;;2.00;2.00;;;;;12.62;56.82;101212.53;5015439;28;45505;-68
2023/04/07 01:03:34;;;;;;;;;4.75;3.75;;;;;12.57;56.64;101196.31;5014943;28;45354;-68
2023/04/07 01:06:06;;;;;;;;;5.25;2.00;;;;;12.49;56.53;101181.84;5015126;28;46858;-66
2023/04/07 01:08:50;;;;;;;;;2.67;2.00;;;;;12.65;57.28;101204.56;5015374;28;45470;-67
2023/04/07 01:11:20;;;;;;;;;2.00;1.67;;;;;12.64;55.92;101206.34;5014505;28;45434;-69
2023/04/07 01:13:49;;;;;;;;;3.50;2.00;;;;;12.62;56.52;101200.06;5015634;28;45808;-66
2023/04/07 01:16:22;;;;;;;;;5.00;3.25;;;;;12.63;56.82;101207.22;5026632;28;46483;-67
2023/04/07 01:18:51;;;;;;;;;5.25;2.00;;;;;12.53;56.81;101191.78;5034698;28;45409;-67
2023/04/07 01:21:18;;;;;;;;;5.25;2.50;;;;;12.64;56.33;101203.69;5025660;28;45479;-66
2023/04/07 01:23:58;;;;;;;;;4.00;0.75;;;;;12.65;56.73;101204.56;5015176;28;45525;-67
2023/04/07 01:26:28;;;;;;;;;3.67;3.00;;;;;12.63;56.44;101209.88;5014827;28;45431;-68
2023/04/07 01:29:13;;;;;;;;;5.50;5.50;;;;;12.62;56.83;101196.44;5014151;28;45474;-67
2023/04/07 01:31:40;;;;;;;;;5.75;4.75;;;;;12.60;56.59;101187.47;5015051;28;45343;-65
2023/04/07 01:34:09;;;;;;;;;4.50;4.00;;;;;12.64;57.67;101209.03;5015380;28;45240;-67
2023/04/07 01:36:35;;;;;;;;;3.67;2.00;;;;;12.63;57.36;101204.53;5015049;28;45580;-68
2023/04/07 01:39:01;;;;;;;;;4.50;3.00;;;;;12.66;57.04;101215.34;5014527;28;45343;-67
2023/04/07 01:41:27;;;;;;;;;2.00;2.00;;;;;12.63;56.92;101207.22;5034946;28;45411;-67
2023/04/07 01:43:54;;;;;;;;;2.00;2.00;;;;;12.63;57.34;101211.69;5021764;28;45291;-66
2023/04/07 01:46:20;;;;;;;;;1.00;1.00;;;;;12.66;57.14;101212.66;5014431;28;45500;-67
2023/04/07 01:48:46;;;;;;;;;5.00;1.00;;;;;12.68;57.39;101210.91;5014502;28;45390;-66
2023/04/07 01:51:16;;;;;;;;;5.00;3.33;;;;;12.57;56.78;101180.25;5014701;28;45482;-68
2023/04/07 01:53:42;;;;;;;;;3.67;3.67;;;;;12.71;56.68;101205.63;5014933;28;46106;-69
2023/04/07 01:56:07;;;;;;;;;7.00;1.67;;;;;12.66;57.49;101201.94;5014412;28;45263;-67
2023/04/07 01:58:33;;;;;;;;;2.25;1.00;;;;;12.71;56.62;101202.06;5014269;28;45353;-66
2023/04/07 02:00:58;;;;;;;;;6.25;2.50;;;;;12.71;56.38;101205.63;5014413;28;45682;-67
2023/04/07 02:03:31;;;;;;;;;5.67;2.00;;;;;12.69;56.62;101207.38;5014425;28;45623;-68
2023/04/07 02:06:05;;;;;;;;;2.00;2.00;;;;;12.67;56.90;101193.03;5018035;28;46683;-68
2023/04/07 02:08:32;;;;;;;;;1.67;1.67;;;;;12.72;56.71;101211.91;5034508;28;45606;-69
2023/04/07 02:11:02;;;;;;;;;6.00;4.00;;;;;12.76;57.30;101218.25;5034396;28;45316;-68
2023/04/07 02:13:29;;;;;;;;;2.00;2.00;;;;;12.77;57.44;101214.69;5034603;28;45441;-68
2023/04/07 02:15:56;;;;;;;;;4.50;2.00;;;;;12.79;57.33;101215.66;5033464;28;45493;-67
2023/04/07 02:18:24;;;;;;;;;7.25;4.00;;;;;12.69;56.85;101199.34;5014387;28;45503;-68
2023/04/07 02:20:52;;;;;;;;;6.50;3.25;;;;;12.75;57.22;101216.44;5013002;28;45486;-68
2023/04/07 02:23:17;;;;;;;;;4.00;3.25;;;;;12.64;57.33;101217.06;5014568;28;45566;-67
2023/04/07 02:25:42;;;;;;;;;5.50;4.50;;;;;12.51;57.85;101201.56;5013954;28;45397;-67
2023/04/07 02:28:08;;;;;;;;;8.00;4.75;;;;;12.54;58.11;101207.91;5014269;28;45438;-67
2023/04/07 02:30:34;;;;;;;;;6.50;3.50;;;;;12.60;58.39;101220.53;5014047;28;52404;-67
2023/04/07 02:33:00;;;;;;;;;2.33;2.33;;;;;12.63;58.10;101222.41;5014119;28;45465;-68
2023/04/07 02:35:25;;;;;;;;;3.50;2.25;;;;;12.57;58.15;101207.03;5013632;28;46198;-67
2023/04/07 02:37:50;;;;;;;;;3.50;2.25;;;;;12.71;57.55;101219.03;5014018;28;45355;-68
2023/04/07 02:40:16;;;;;;;;;5.50;4.25;;;;;12.68;58.36;101212.69;5014047;28;45527;-67
2023/04/07 02:42:42;;;;;;;;;4.75;4.75;;;;;12.68;58.03;101218.06;5014162;28;45359;-67
2023/04/07 02:45:09;;;;;;;;;4.75;4.00;;;;;12.64;58.26;101211.72;5013591;28;46597;-67
2023/04/07 02:47:35;;;;;;;;;8.50;4.50;;;;;12.66;57.72;101215.34;5013908;28;45296;-68
2023/04/07 02:50:01;;;;;;;;;5.00;3.50;;;;;12.64;57.75;101214.41;5011601;28;45419;-68
2023/04/07 02:52:26;;;;;;;;;4.00;2.50;;;;;12.60;58.82;101212.50;5014068;28;45537;-68
2023/04/07 02:54:51;;;;;;;;;6.75;4.50;;;;;12.56;58.40;101201.69;5013575;28;45513;-67
2023/04/07 02:57:17;;;;;;;;;3.75;2.50;;;;;12.54;58.42;101209.69;5013901;28;45737;-67
2023/04/07 02:59:43;;;;;;;;;5.00;5.00;;;;;12.47;58.85;101196.97;5013678;28;45314;-67
2023/04/07 03:02:08;;;;;;;;;8.00;3.00;;;;;12.40;58.89;101208.41;5027756;28;45669;-66
2023/04/07 03:04:33;;;;;;;;;6.00;5.75;;;;;12.35;59.38;101202.91;5033356;28;45382;-68
2023/04/07 03:06:59;;;;;;;;;7.75;3.75;;;;;12.35;59.25;101205.59;5026987;28;45432;-67
2023/04/07 03:09:25;;;;;;;;;6.00;4.25;;;;;12.33;58.74;101207.34;5013810;28;45421;-66
2023/04/07 03:11:50;;;;;;;;;8.25;5.50;;;;;12.33;59.29;101212.69;5014316;28;45697;-67
2023/04/07 03:14:16;;;;;;;;;8.00;4.00;;;;;12.33;59.40;101207.34;5013022;28;45537;-67
2023/04/07 03:16:41;;;;;;;;;5.00;3.50;;;;;12.22;58.86;101190.97;5013508;28;45501;-67
2023/04/07 03:19:08;;;;;;;;;3.00;2.25;;;;;12.26;59.64;101200.91;5013626;28;45448;-67
2023/04/07 03:21:33;;;;;;;;;5.75;4.00;;;;;12.26;59.08;101210.69;5014073;28;45391;-67
2023/04/07 03:23:59;;;;;;;;;4.75;2.50;;;;;12.18;59.04;101197.13;5012739;28;46268;-68
2023/04/07 03:26:24;;;;;;;;;5.75;2.50;;;;;12.25;59.11;101208.91;5015651;28;45698;-67
2023/04/07 03:28:50;;;;;;;;;4.00;4.00;;;;;12.21;59.52;101205.25;5017211;28;55941;-66
2023/04/07 03:31:15;;;;;;;;;6.50;3.25;;;;;12.05;59.21;101187.84;5017481;28;45417;-68
2023/04/07 03:33:40;;;;;;;;;4.00;4.00;;;;;12.15;59.73;101203.28;5016523;28;45604;-67
2023/04/07 03:36:07;;;;;;;;;3.00;3.00;;;;;12.06;60.27;101207.47;5016437;28;45406;-66
2023/04/07 03:38:32;;;;;;;;;2.00;2.00;;;;;12.00;60.21;101210.00;5017038;28;45432;-66
2023/04/07 03:40:57;;;;;;;;;7.50;4.50;;;;;12.04;59.73;101217.25;5016602;28;45347;-67
2023/04/07 03:43:23;;;;;;;;;5.00;3.25;;;;;12.03;60.20;101221.72;5015062;28;47165;-66
2023/04/07 03:45:48;;;;;;;;;4.00;2.75;;;;;12.04;60.20;101217.25;5016362;28;45344;-68
2023/04/07 03:48:13;;;;;;;;;7.00;5.00;;;;;12.02;59.89;101217.22;5016652;28;45626;-67
2023/04/07 03:50:40;;;;;;;;;7.75;4.75;;;;;12.07;59.53;101218.22;5016579;28;45449;-69
2023/04/07 03:53:05;;;;;;;;;7.50;4.50;;;;;12.08;60.07;101213.81;5016197;28;46478;-66
2023/04/07 03:55:32;;;;;;;;;4.00;3.00;;;;;12.07;60.00;101220.03;5016610;28;45394;-67
2023/04/07 03:57:58;;;;;;;;;7.75;5.00;;;;;12.08;60.36;101219.16;5016185;28;45418;-68
2023/04/07 04:00:24;;;;;;;;;9.25;4.00;;;;;12.05;60.04;101214.63;5016479;28;45325;-67
2023/04/07 04:02:49;;;;;;;;;8.25;3.50;;;;;11.97;60.18;101205.47;5016281;28;45438;-67
2023/04/07 04:05:15;;;;;;;;;2.75;2.75;;;;;11.92;60.71;101210.69;5017820;28;45609;-65
2023/04/07 04:07:40;;;;;;;;;4.00;4.00;;;;;11.88;60.39;101197.13;5016103;28;45355;-66
2023/04/07 04:10:06;;;;;;;;;6.75;4.75;;;;;11.95;60.62;101216.13;5014843;28;45411;-66
2023/04/07 04:12:31;;;;;;;;;3.50;3.00;;;;;11.91;60.36;101213.28;5016225;28;45402;-66
2023/04/07 04:14:57;;;;;;;;;5.50;4.25;;;;;11.88;59.70;101213.19;5015627;28;45362;-67
2023/04/07 04:17:22;;;;;;;;;6.00;4.00;;;;;11.91;60.22;101224.97;5016108;28;45476;-65
2023/04/07 04:19:48;;;;;;;;;5.50;3.75;;;;;11.96;59.89;101228.66;5016367;28;45613;-67
2023/04/07 04:22:13;;;;;;;;;8.00;4.00;;;;;11.94;59.98;101224.13;5016117;28;45267;-66
2023/04/07 04:24:40;;;;;;;;;5.50;4.00;;;;;11.94;59.61;101226.78;5014922;28;45483;-66
2023/04/07 04:27:06;;;;;;;;;7.00;4.75;;;;;11.95;60.14;101236.66;5016390;28;45492;-67
2023/04/07 04:29:32;;;;;;;;;2.00;2.00;;;;;11.95;59.83;101240.22;5016291;28;45547;-66
2023/04/07 04:31:57;;;;;;;;;3.50;3.00;;;;;11.88;59.85;101232.88;5026671;28;46252;-68
2023/04/07 04:34:23;;;;;;;;;5.50;1.00;;;;;11.55;60.47;101184.59;5035264;28;45303;-66
2023/04/07 04:36:48;;;;;;;;;3.00;3.00;;;;;11.78;59.57;101244.19;5035596;28;45372;-67
2023/04/07 04:39:13;;;;;;;;;3.50;3.50;;;;;11.77;60.06;101253.06;5035545;28;45404;-68
2023/04/07 04:41:39;;;;;;;;;4.50;4.00;;;;;11.79;60.20;101248.66;5034199;28;46203;-67
2023/04/07 04:44:04;;;;;;;;;3.50;3.50;;;;;11.77;60.04;101247.69;5035528;28;45474;-67
2023/04/07 04:46:30;;;;;;;;;2.25;2.25;;;;;11.77;59.88;101251.28;5035920;28;45398;-66
2023/04/07 04:48:56;;;;;;;;;11.00;5.00;;;;;11.70;60.43;101235.91;5032898;28;45403;-66
2023/04/07 04:51:22;;;;;;;;;9.50;4.25;;;;;11.73;60.20;101251.13;5035083;28;45394;-68
2023/04/07 04:53:48;;;;;;;;;3.75;2.75;;;;;11.72;60.37;101250.22;5035118;28;45816;-68
2023/04/07 04:56:13;;;;;;;;;5.50;4.00;;;;;11.73;60.45;101245.78;5035427;28;45435;-66
2023/04/07 04:58:39;;;;;;;;;8.00;2.75;;;;;11.73;60.01;101249.38;5035530;28;45354;-66
2023/04/07 05:01:05;;;;;;;;;5.50;3.25;;;;;11.68;60.19;101236.72;5029783;28;47478;-66
2023/04/07 05:03:30;;;;;;;;;2.25;2.00;;;;;11.75;60.64;101250.34;5030163;28;45484;-67
2023/04/07 05:05:55;;;;;;;;;8.00;4.00;;;;;11.76;59.60;101251.22;5015586;28;47499;-66
2023/04/07 05:08:21;;;;;;;;;3.25;3.00;;;;;11.73;59.70;101252.06;5017591;28;45431;-66
2023/04/07 05:10:46;;;;;;;;;6.00;4.50;;;;;11.31;59.89;101182.09;5025034;28;45872;-67
2023/04/07 05:13:11;;;;;;;;;8.25;6.00;;;;;11.71;59.93;101253.75;5014591;28;45469;-67
2023/04/07 05:15:37;;;;;;;;;34.75;24.50;;;;;11.74;59.76;101261.00;5020228;28;45615;-70
2023/04/07 05:18:02;;;;;;;;;7.25;6.75;;;;;11.72;60.19;101260.03;5037105;28;45344;-66
2023/04/07 05:20:28;;;;;;;;;4.75;4.75;;;;;11.74;60.12;101248.50;5018080;28;46081;-67
2023/04/07 05:22:53;;;;;;;;;6.50;4.25;;;;;11.69;60.41;101249.25;5013837;28;45434;-67
2023/04/07 05:25:18;;;;;;;;;8.25;6.25;;;;;11.64;60.10;101234.81;5014015;28;45449;-67
2023/04/07 05:27:44;;;;;;;;;8.75;6.75;;;;;11.62;59.63;101233.00;5016266;28;45298;-66
2023/04/07 05:30:10;;;;;;;;;7.00;6.00;;;;;11.70;59.96;101246.63;5015969;28;45803;-65
2023/04/07 05:32:35;;;;;;;;;7.00;4.00;;;;;11.67;60.01;101249.19;5014592;28;45347;-66
2023/04/07 05:35:01;;;;;;;;;4.75;4.00;;;;;11.64;59.63;101245.53;5014348;28;45282;-66
2023/04/07 05:37:26;;;;;;;;;5.25;4.50;;;;;11.68;59.61;101258.13;5015737;28;45399;-67
2023/04/07 05:39:51;;;;;;;;;7.00;5.75;;;;;11.63;60.10;101252.63;5019843;28;46208;-69
2023/04/07 05:42:17;;;;;;;;;9.25;6.50;;;;;11.69;60.10;101258.16;5014252;28;45458;-66
2023/04/07 05:44:42;;;;;;;;;6.25;6.25;;;;;11.46;59.85;101224.47;5014384;28;45336;-67
2023/04/07 05:47:10;;;;;;;;;8.00;6.00;;;;;11.71;60.72;101263.56;5014248;28;45340;-69
2023/04/07 05:49:36;;;;;;;;;7.75;6.00;;;;;11.74;59.93;101266.34;5027963;28;46636;-67
2023/04/07 05:52:02;;;;;;;;;5.25;5.25;;;;;11.72;59.59;101260.94;5029338;28;45525;-66
2023/04/07 05:54:28;;;;;;;;;12.00;9.00;;;;;11.68;59.74;101259.06;5013886;28;45406;-66
2023/04/07 05:56:53;;;;;;;;;9.25;7.00;;;;;11.71;59.87;101269.81;5014661;28;45372;-66
2023/04/07 05:59:18;;;;;;;;;8.50;6.75;;;;;11.67;59.64;101267.03;5014107;28;45352;-67
2023/04/07 06:01:44;;;;;;;;;14.75;7.25;;;;;11.71;60.18;101277.84;5014185;28;45317;-64
2023/04/07 06:04:09;;;;;;;;;9.00;5.50;;;;;11.62;59.73;101256.19;5013584;28;45225;-67
2023/04/07 06:06:34;;;;;;;;;16.00;13.50;;;;;11.71;59.83;101275.16;5014505;28;45570;-66
2023/04/07 06:09:00;;;;;;;;;11.00;8.50;;;;;11.74;59.78;101274.38;5013888;28;46831;-66
2023/04/07 06:11:26;;;;;;;;;10.50;6.75;;;;;11.78;59.62;101281.66;5014124;28;45247;-68
2023/04/07 06:13:51;;;;;;;;;10.75;7.75;;;;;11.75;59.41;101277.09;5012808;28;45393;-67
2023/04/07 06:16:16;;;;;;;;;9.25;7.25;;;;;11.75;60.09;101279.78;5015928;28;45419;-67
2023/04/07 06:18:42;;;;;;;;;15.00;9.75;;;;;11.75;60.15;101284.22;5030638;28;45968;-67
2023/04/07 06:21:08;;;;;;;;;14.00;8.50;;;;;11.73;59.93;101288.59;5043255;28;45503;-66
2023/04/07 06:23:33;;;;;;;;;8.50;8.50;;;;;11.74;60.14;101285.09;5042477;28;45588;-67
2023/04/07 06:26:00;;;;;;;;;15.25;7.75;;;;;11.71;59.79;101291.22;5033438;28;45373;-67
2023/04/07 06:28:26;;;;;;;;;11.25;8.25;;;;;11.73;59.66;101289.53;5016411;28;46201;-66
2023/04/07 06:30:52;;;;;;;;;13.25;9.25;;;;;11.78;59.83;101300.38;5019974;28;45503;-67
2023/04/07 06:33:18;;;;;;;;;12.50;11.75;;;;;11.77;59.39;101307.50;5032981;28;45696;-68
2023/04/07 06:35:44;;;;;;;;;11.50;9.00;;;;;11.79;59.45;101313.78;5019479;28;45588;-68
2023/04/07 06:38:11;;;;;;;;;6.00;6.00;;;;;11.78;59.57;101316.44;5013379;28;46085;-66
2023/04/07 06:40:36;;;;;;;;;7.25;5.00;;;;;11.76;59.32;101313.72;5028823;28;45517;-67
2023/04/07 06:43:02;;;;;;;;;12.00;7.00;;;;;11.76;59.52;101315.47;5032744;28;45647;-68
2023/04/07 06:45:28;;;;;;;;;9.00;7.75;;;;;11.77;59.10;101315.53;5033666;28;45443;-66
2023/04/07 06:47:53;;;;;;;;;11.00;6.00;;;;;11.76;59.24;101324.44;5033265;28;46643;-66
2023/04/07 06:50:21;;;;;;;;;9.25;8.50;;;;;11.82;59.86;101328.16;5030882;28;45727;-66
2023/04/07 06:52:46;;;;;;;;;9.25;8.00;;;;;11.84;59.39;101323.75;5024540;28;45487;-67
2023/04/07 06:55:11;;;;;;;;;23.00;19.75;;;;;11.83;59.19;101322.84;5025659;28;45572;-66
2023/04/07 06:57:37;;;;;;;;;14.75;11.75;;;;;11.88;59.30;101337.28;5025072;28;46266;-65
2023/04/07 07:00:03;;;;;;;;;9.75;7.75;;;;;11.92;58.62;101336.53;5032310;28;45345;-68
2023/04/07 07:02:28;;;;;;;;;9.25;5.00;;;;;11.90;59.32;101327.53;5035045;28;45374;-66
2023/04/07 07:04:53;;;;;;;;;11.50;7.50;;;;;11.93;58.99;101337.47;5036779;28;45296;-67
2023/04/07 07:07:19;;;;;;;;;8.25;7.25;;;;;11.92;58.97;101330.28;5036917;28;49831;-65
2023/04/07 07:09:44;;;;;;;;;16.25;11.75;;;;;11.96;59.54;101333.09;5036733;28;45449;-67
2023/04/07 07:12:10;;;;;;;;;16.75;10.25;;;;;12.02;58.51;101335.03;5023997;28;45489;-66
2023/04/07 07:14:35;;;;;;;;;13.25;9.75;;;;;12.01;57.83;101335.94;5034342;28;45323;-67
2023/04/07 07:17:00;;;;;;;;;10.75;9.25;;;;;11.97;58.64;101342.03;5021385;28;45597;-66
2023/04/07 07:19:26;;;;;;;;;15.75;10.25;;;;;11.86;58.86;101332.72;5031619;28;45603;-66
2023/04/07 07:21:51;;;;;;;;;19.25;12.25;;;;;11.87;58.84;101347.94;5034991;28;45376;-67
2023/04/07 07:24:16;;;;;;;;;10.25;10.25;;;;;11.76;59.25;101339.56;5023563;28;45462;-67
2023/04/07 07:26:42;;;;;;;;;11.00;9.25;;;;;11.88;58.47;101353.34;5024332;28;46185;-66
2023/04/07 07:29:07;;;;;;;;;10.00;8.50;;;;;11.93;57.99;101361.56;4979812;28;45682;-66
2023/04/07 07:31:33;;;;;;;;;16.25;13.00;;;;;11.93;58.07;101365.13;5026433;28;45360;-64
2023/04/07 07:33:58;;;;;;;;;13.00;12.75;;;;;11.94;57.88;101356.22;5025942;28;45445;-68
2023/04/07 07:36:23;;;;;;;;;14.75;13.00;;;;;11.96;57.53;101357.19;5030136;28;47256;-66
2023/04/07 07:38:50;;;;;;;;;12.00;10.00;;;;;12.02;58.02;101355.56;5022252;28;51852;-64
2023/04/07 07:41:16;;;;;;;;;16.00;10.25;;;;;12.08;57.48;101359.34;5036347;28;45456;-64
2023/04/07 07:43:41;;;;;;;;;16.50;13.00;;;;;12.15;57.67;101355.97;5035989;28;45369;-64
2023/04/07 07:46:07;;;;;;;;;15.00;10.25;;;;;12.20;58.13;101361.47;5035735;28;47951;-64
2023/04/07 07:48:32;;;;;;;;;12.50;9.25;;;;;12.25;57.16;101365.19;5030802;28;45499;-65
2023/04/07 07:50:58;;;;;;;;;13.25;10.50;;;;;12.23;56.83;101366.03;5036189;28;45295;-66
2023/04/07 07:53:23;;;;;;;;;14.75;11.75;;;;;12.28;56.78;101359.91;5036278;28;45906;-67
2023/04/07 07:55:49;;;;;;;;;16.00;11.50;;;;;12.37;56.18;101367.31;5036028;28;45337;-67
2023/04/07 07:58:14;;;;;;;;;12.00;9.00;;;;;12.44;56.80;101358.59;5035620;28;45402;-65
2023/04/07 08:00:40;;;;;;;;;16.25;11.75;;;;;12.56;56.43;101363.41;5035786;28;45470;-65
2023/04/07 08:03:05;;;;;;;;;12.50;11.25;;;;;12.67;55.38;101364.59;5036263;28;45460;-67
2023/04/07 08:05:30;;;;;;;;;11.00;9.00;;;;;12.76;55.48;101374.66;5026318;28;47652;-65
2023/04/07 08:07:56;;;;;;;;;13.00;11.00;;;;;12.69;55.04;101357.50;5017169;28;45473;-66
2023/04/07 08:10:23;;;;;;;;;19.50;16.00;;;;;12.68;55.87;101371.75;5036258;28;45484;-65
2023/04/07 08:12:49;;;;;;;;;22.00;13.75;;;;;12.72;55.50;101367.44;5035141;28;45535;-66
2023/04/07 08:15:15;;;;;;;;;12.25;11.75;;;;;12.80;55.48;101363.19;5035437;28;45452;-66
2023/04/07 08:17:40;;;;;;;;;12.25;12.25;;;;;12.94;54.78;101379.63;5035374;28;45492;-66
2023/04/07 08:20:06;;;;;;;;;15.00;13.50;;;;;13.00;54.34;101378.88;5035376;28;45479;-66
2023/04/07 08:22:31;;;;;;;;;10.25;10.25;;;;;13.00;54.42;101374.44;5028588;28;45409;-66
2023/04/07 08:24:57;;;;;;;;;13.50;10.50;;;;;13.08;54.51;101377.28;5018893;28;45566;-66
2023/04/07 08:27:22;;;;;;;;;21.00;15.75;;;;;13.19;53.77;101378.50;5035738;28;45402;-65
2023/04/07 08:29:58;;;;;;;;;10.25;9.00;;;;;13.18;53.22;101376.69;5036234;28;45573;-66
2023/04/07 08:32:23;;;;;;;;;16.00;14.00;;;;;13.22;53.80;101383.03;5035940;28;45659;-66
2023/04/07 08:34:48;;;;;;;;;14.25;11.25;;;;;13.28;53.34;101384.09;5034365;28;65743;-65
2023/04/07 08:37:14;;;;;;;;;16.00;11.25;;;;;13.40;53.33;101386.22;5013799;28;45602;-65
2023/04/07 08:39:40;;;;;;;;;15.75;13.00;;;;;13.45;53.16;101381.88;5023832;28;45419;-64
2023/04/07 08:42:07;;;;;;;;;15.50;12.50;;;;;13.53;52.89;101382.06;5035906;28;45492;-65
2023/04/07 08:44:35;;;;;;;;;15.00;13.50;;;;;13.58;52.35;101371.44;5035079;28;45990;-64
2023/04/07 08:47:06;;;;;;;;;13.75;11.25;;;;;13.71;51.71;101367.25;5033487;28;45482;-65
2023/04/07 08:49:36;;;;;;;;;12.75;12.25;;;;;13.79;51.45;101377.31;5034948;28;45434;-66
2023/04/07 08:52:05;;;;;;;;;15.50;11.00;;;;;13.58;51.05;101320.44;5035198;28;45382;-63
2023/04/07 08:54:32;;;;;;;;;14.00;11.25;;;;;14.01;50.92;101367.97;5034660;28;46866;-65
2023/04/07 08:56:58;;;;;;;;;12.75;11.75;;;;;14.14;51.26;101382.56;5022486;28;45527;-65
2023/04/07 08:59:28;;;;;;;;;14.75;13.25;;;;;14.23;51.01;101379.19;5015258;28;45373;-65
2023/04/07 09:01:53;;;;;;;;;16.25;13.50;;;;;14.35;50.68;101382.13;5015455;28;45236;-65
2023/04/07 09:04:21;;;;;;;;;13.00;11.75;;;;;14.46;49.87;101390.41;5014508;28;45391;-65
2023/04/07 09:06:47;;;;;;;;;19.50;15.75;;;;;14.55;49.90;101392.38;5020902;28;45619;-64
2023/04/07 09:09:12;;;;;;;;;17.00;12.75;;;;;14.57;48.92;101396.03;5033524;28;45447;-65
2023/04/07 09:11:39;;;;;;;;;14.00;11.75;;;;;14.61;48.74;101399.72;5033486;28;45609;-65
2023/04/07 09:14:04;;;;;;;;;15.75;13.75;;;;;14.62;49.51;101389.00;5032621;28;46062;-64
2023/04/07 09:16:30;;;;;;;;;15.50;14.00;;;;;14.69;48.30;101387.31;5034804;28;45475;-67
2023/04/07 09:18:56;;;;;;;;;12.50;11.75;;;;;14.76;48.72;101389.25;5033881;28;45484;-65
2023/04/07 09:21:22;;;;;;;;;14.50;13.00;;;;;14.85;48.39;101400.19;5029946;28;45545;-65
2023/04/07 09:23:47;;;;;;;;;11.00;11.00;;;;;14.86;48.37;101391.22;5021901;28;45755;-66
2023/04/07 09:26:27;;;;;;;;;11.00;9.50;;;;;14.92;48.11;101401.22;5018362;28;45335;-65
2023/04/07 09:28:54;;;;;;;;;14.75;13.00;;;;;14.99;47.71;101396.84;5032558;28;45659;-65
2023/04/07 09:31:20;;;;;;;;;12.75;10.25;;;;;14.98;48.29;101395.97;5043362;28;45435;-65
2023/04/07 09:33:47;;;;;;;;;12.50;11.00;;;;;15.08;48.01;101402.44;5044350;28;45775;-66
2023/04/07 09:36:12;;;;;;;;;13.75;13.75;;;;;15.18;48.00;101396.31;5048769;28;45271;-65
2023/04/07 09:38:40;;;;;;;;;14.75;11.75;;;;;15.15;46.75;101385.50;5046038;28;45050;-65
2023/04/07 09:41:13;;;;;;;;;14.25;11.50;;;;;15.25;46.24;101391.94;5038061;28;45797;-66
2023/04/07 09:43:41;;;;;;;;;10.00;9.75;;;;;15.35;46.47;101401.09;5032858;28;47300;-69
2023/04/07 09:46:13;;;;;;;;;17.25;13.00;;;;;15.30;46.56;101399.22;5026388;28;45400;-65
2023/04/07 09:48:39;;;;;;;;;10.50;9.75;;;;;15.29;46.51;101399.19;5027793;28;45642;-65
2023/04/07 09:51:13;;;;;;;;;10.00;10.00;;;;;15.31;46.41;101394.75;5033571;28;45305;-64
2023/04/07 09:53:48;;;;;;;;;10.50;8.00;;;;;15.35;45.66;101402.00;5029691;28;45935;-65
2023/04/07 09:56:21;;;;;;;;;13.75;10.75;;;;;15.18;45.71;101334.41;5028491;28;45444;-65
2023/04/07 09:58:47;;;;;;;;;15.00;9.50;;;;;15.65;45.24;101385.41;5030254;28;45470;-65
2023/04/07 10:01:18;;;;;;;;;8.75;8.25;;;;;15.78;43.79;101385.66;5028032;28;45759;-65
2023/04/07 10:03:45;;;;;;;;;8.33;5.33;;;;;15.88;41.31;101393.00;5023056;28;45595;-66
2023/04/07 10:06:11;;;;;;;;;5.00;5.00;;;;;15.85;39.73;101390.25;5018148;28;46173;-63
2023/04/07 10:08:39;;;;;;;;;7.33;4.33;;;;;15.69;39.99;101393.56;5024315;28;45488;-65
2023/04/07 10:11:05;;;;;;;;;9.67;9.33;;;;;15.61;40.61;101386.28;5027220;28;45464;-65
2023/04/07 10:13:33;;;;;;;;;7.00;3.67;;;;;15.59;40.62;101400.56;5020651;28;46933;-64
2023/04/07 10:16:02;;;;;;;;;8.00;7.00;;;;;15.54;40.92;101396.91;5026777;28;45297;-63
2023/04/07 10:18:30;;;;;;;;;9.67;6.67;;;;;15.58;41.57;101394.28;5013460;28;45338;-66
2023/04/07 10:20:59;;;;;;;;;9.67;5.33;;;;;15.63;41.55;101370.13;5015874;28;45379;-66
2023/04/07 10:23:35;;;;;;;;;11.33;8.33;;;;;15.81;40.43;101391.09;5033658;28;46995;-65
2023/04/07 10:26:02;;;;;;;;;16.00;15.50;;;;;15.86;40.06;101392.06;5033150;28;45357;-62
2023/04/07 10:28:30;;;;;;;;;6.67;6.67;;;;;15.83;40.00;101394.72;5029482;28;45304;-64
2023/04/07 10:30:57;;;;;;;;;5.67;5.67;;;;;15.90;40.01;101393.00;5019234;28;45677;-64
2023/04/07 10:33:48;;;;;;;;;7.67;7.67;;;;;15.81;40.84;101388.41;5023081;28;45483;-65
2023/04/07 10:36:14;;;;;;;;;8.00;6.00;;;;;15.97;40.14;101386.81;5039958;28;45323;-64
2023/04/07 10:38:41;;;;;;;;;10.75;10.75;;;;;16.17;39.65;101384.44;5017024;28;45411;-64
2023/04/07 10:41:36;;;;;;;;;6.00;6.00;;;;;16.40;38.94;101382.94;5029083;28;45591;-65
2023/04/07 10:44:05;;;;;;;;;7.67;5.00;;;;;16.42;38.51;101385.66;5013261;28;45538;-64
2023/04/07 10:46:47;;;;;;;;;6.67;5.00;;;;;16.50;38.75;101394.75;5013017;28;45388;-63
2023/04/07 10:49:13;;;;;;;;;6.00;5.00;;;;;16.52;38.23;101375.88;5013150;28;45505;-63
2023/04/07 10:51:39;;;;;;;;;7.50;7.50;;;;;16.51;38.45;101372.25;5014038;28;45554;-64
2023/04/07 10:54:13;;;;;;;;;6.33;6.33;;;;;16.51;38.03;101383.03;5013188;28;45433;-65
2023/04/07 10:57:07;;;;;;;;;9.67;9.00;;;;;16.53;38.00;101385.75;5013770;28;45479;-62
2023/04/07 10:59:33;;;;;;;;;10.33;7.67;;;;;16.38;38.07;101373.94;5013125;28;45497;-64
2023/04/07 11:02:13;;;;;;;;;9.33;8.33;;;;;16.35;37.81;101383.75;5012679;28;45654;-65
2023/04/07 11:04:41;;;;;;;;;21.00;18.00;;;;;16.19;38.30;101380.84;5012667;28;46529;-64
2023/04/07 11:07:07;;;;;;;;;8.00;6.67;;;;;16.10;38.48;101380.75;5012725;28;45320;-63
2023/04/07 11:09:32;;;;;;;;;5.00;5.00;;;;;16.10;38.80;101380.75;5018494;28;45442;-66
2023/04/07 11:11:58;;;;;;;;;6.33;4.67;;;;;16.23;38.22;101378.19;5015905;28;45460;-63
2023/04/07 11:14:27;;;;;;;;;4.67;3.33;;;;;16.29;37.51;101378.28;5013237;28;45383;-65
2023/04/07 11:16:53;;;;;;;;;5.00;5.00;;;;;16.26;37.94;101380.94;5013676;28;45516;-64
2023/04/07 11:19:19;;;;;;;;;4.67;3.67;;;;;16.22;38.05;101363.81;5020928;28;45851;-65